Time;durP1;ratioP1;P1;durP2;ratioP2;P2;SDS_P1;SDS_P2;PMS_P1;PMS_P2;Temp;Humidity;BMP_temperature;BMP_pressure;BME280_temperature;BME280_humidity;BME280_pressure;Samples;Min_cycle;Max_cycle;Signal;HPM_P1;HPM_P2
2022/07/27 00:00:53;;;;;;;0.40;0.40;;;18.00;99.90;;;;;;5025311;28;20443;-59
2022/07/27 00:03:22;;;;;;;0.30;0.30;;;18.00;99.90;;;;;;5032976;28;20438;-59
2022/07/27 00:05:49;;;;;;;0.30;0.30;;;18.10;99.90;;;;;;5021109;28;20435;-59
2022/07/27 00:08:18;;;;;;;0.30;0.30;;;18.10;99.90;;;;;;5022846;28;20461;-59
2022/07/27 00:10:45;;;;;;;0.40;0.40;;;18.20;99.90;;;;;;5042811;28;20457;-59
2022/07/27 00:13:12;;;;;;;0.40;0.40;;;18.30;99.90;;;;;;5025591;28;20518;-59
2022/07/27 00:15:39;;;;;;;0.30;0.30;;;18.40;99.90;;;;;;5007744;28;20435;-59
2022/07/27 00:18:08;;;;;;;0.40;0.40;;;18.40;99.90;;;;;;5027119;28;20438;-59
2022/07/27 00:20:36;;;;;;;0.30;0.30;;;18.40;99.90;;;;;;5027370;28;20434;-59
2022/07/27 00:23:03;;;;;;;0.40;0.40;;;18.40;99.90;;;;;;5019553;28;20507;-59
2022/07/27 00:25:32;;;;;;;0.45;0.45;;;18.40;99.90;;;;;;5015730;28;20458;-60
2022/07/27 00:27:59;;;;;;;0.50;0.50;;;18.40;99.90;;;;;;5024855;28;20491;-59
2022/07/27 00:30:26;;;;;;;0.40;0.40;;;18.40;99.90;;;;;;5029460;28;20430;-59
2022/07/27 00:32:53;;;;;;;0.40;0.40;;;18.40;99.90;;;;;;5029353;28;20438;-59
2022/07/27 00:35:20;;;;;;;0.38;0.38;;;18.30;99.90;;;;;;5033076;28;20509;-59
2022/07/27 00:37:49;;;;;;;0.30;0.30;;;18.30;99.90;;;;;;5025114;28;20483;-59
2022/07/27 00:40:16;;;;;;;0.40;0.40;;;18.30;99.90;;;;;;5028809;28;20465;-59
2022/07/27 00:42:43;;;;;;;0.70;0.40;;;18.30;99.90;;;;;;5032272;28;20784;-59
2022/07/27 00:45:10;;;;;;;0.30;0.30;;;18.30;99.90;;;;;;5027091;28;20949;-60
2022/07/27 00:47:37;;;;;;;0.30;0.30;;;18.30;99.90;;;;;;5028416;28;21130;-59
2022/07/27 00:50:05;;;;;;;0.43;0.43;;;18.20;99.90;;;;;;5034799;28;20431;-59
2022/07/27 00:52:35;;;;;;;0.35;0.35;;;18.20;99.90;;;;;;5027990;28;20514;-59
2022/07/27 00:55:03;;;;;;;0.30;0.30;;;18.20;99.90;;;;;;5031103;28;20911;-59
2022/07/27 00:57:33;;;;;;;0.32;0.32;;;18.10;99.90;;;;;;5032676;28;20464;-59
2022/07/27 01:00:20;;;;;;;0.35;0.35;;;18.10;99.90;;;;;;5020047;28;20777;-59
2022/07/27 01:02:50;;;;;;;0.40;0.40;;;18.10;99.90;;;;;;5026915;28;20580;-59
2022/07/27 01:05:17;;;;;;;0.40;0.40;;;18.00;99.90;;;;;;5021131;28;20930;-59
2022/07/27 01:07:44;;;;;;;0.30;0.30;;;18.00;99.90;;;;;;5022049;28;20423;-59
2022/07/27 01:10:11;;;;;;;0.30;0.30;;;18.00;99.90;;;;;;5018953;28;20529;-59
2022/07/27 01:12:37;;;;;;;0.40;0.37;;;18.00;99.90;;;;;;5037063;28;20450;-59
2022/07/27 01:15:05;;;;;;;0.40;0.40;;;18.00;99.90;;;;;;5034810;28;20454;-59
2022/07/27 01:17:32;;;;;;;0.38;0.38;;;17.90;99.90;;;;;;5028099;28;20483;-59
2022/07/27 01:19:59;;;;;;;0.30;0.30;;;18.00;99.90;;;;;;5028508;28;20429;-59
2022/07/27 01:22:26;;;;;;;0.40;0.40;;;18.00;99.90;;;;;;5026361;28;20449;-59
2022/07/27 01:24:52;;;;;;;0.30;0.30;;;18.00;99.90;;;;;;5029414;28;20452;-59
2022/07/27 01:27:19;;;;;;;0.20;0.20;;;18.00;99.90;;;;;;5031004;28;20429;-59
2022/07/27 01:29:46;;;;;;;0.30;0.30;;;17.90;99.90;;;;;;5022395;28;20439;-59
2022/07/27 01:32:13;;;;;;;0.30;0.30;;;18.00;99.90;;;;;;5025681;28;20428;-59
2022/07/27 01:34:40;;;;;;;0.38;0.38;;;17.90;99.90;;;;;;5030297;28;20425;-59
2022/07/27 01:37:07;;;;;;;0.40;0.40;;;17.90;99.90;;;;;;5017934;28;20860;-59
2022/07/27 01:39:34;;;;;;;1.20;0.35;;;17.90;99.90;;;;;;5012394;28;20964;-59
2022/07/27 01:42:02;;;;;;;0.20;0.20;;;17.90;99.90;;;;;;5027886;28;21182;-59
2022/07/27 01:44:29;;;;;;;0.30;0.30;;;17.90;99.90;;;;;;5031738;28;20446;-59
2022/07/27 01:46:56;;;;;;;0.28;0.28;;;17.90;99.90;;;;;;5026843;28;21151;-59
2022/07/27 01:49:22;;;;;;;0.30;0.30;;;17.90;99.90;;;;;;5037194;28;20426;-59
2022/07/27 01:51:49;;;;;;;0.40;0.40;;;18.00;99.90;;;;;;5040973;28;20433;-58
2022/07/27 01:54:22;;;;;;;0.50;0.37;;;18.00;99.90;;;;;;5036388;28;20438;-59
2022/07/27 01:56:48;;;;;;;0.20;0.20;;;18.00;99.90;;;;;;5029688;28;20456;-58
2022/07/27 01:59:15;;;;;;;0.20;0.20;;;17.90;99.90;;;;;;5026845;28;20495;-59
2022/07/27 02:01:43;;;;;;;0.30;0.30;;;17.90;99.90;;;;;;5040333;28;20868;-59
2022/07/27 02:04:13;;;;;;;0.40;0.40;;;18.00;99.90;;;;;;5035852;28;20456;-58
2022/07/27 02:06:40;;;;;;;0.30;0.30;;;18.00;99.90;;;;;;5031491;28;20436;-60
2022/07/27 02:09:07;;;;;;;0.30;0.30;;;18.00;99.90;;;;;;5030865;28;20483;-59
2022/07/27 02:14:22;;;;;;;0.30;0.30;;;17.90;99.90;;;;;;5034129;28;20427;-59
2022/07/27 02:16:48;;;;;;;0.22;0.22;;;17.90;99.90;;;;;;5039699;28;20451;-59
2022/07/27 02:19:16;;;;;;;0.30;0.30;;;17.90;99.90;;;;;;5021827;28;21007;-59
2022/07/27 02:21:44;;;;;;;0.20;0.20;;;18.00;99.90;;;;;;5040588;28;20529;-59
2022/07/27 02:24:11;;;;;;;0.40;0.40;;;17.90;99.90;;;;;;5040461;28;21133;-59
2022/07/27 02:26:46;;;;;;;0.30;0.30;;;17.90;99.90;;;;;;5026863;28;20453;-59
2022/07/27 02:29:15;;;;;;;0.33;0.33;;;17.90;99.90;;;;;;5026044;28;20485;-59
2022/07/27 02:31:41;;;;;;;0.30;0.30;;;17.90;99.90;;;;;;5039298;28;20453;-59
2022/07/27 02:34:08;;;;;;;0.20;0.20;;;17.80;99.90;;;;;;5027848;28;20921;-59
2022/07/27 02:36:35;;;;;;;0.30;0.30;;;17.80;99.90;;;;;;5020566;28;20933;-59
2022/07/27 02:39:04;;;;;;;0.30;0.30;;;17.80;99.90;;;;;;5022417;28;20438;-59
2022/07/27 02:41:31;;;;;;;0.30;0.30;;;17.80;99.90;;;;;;5033265;28;20456;-58
2022/07/27 02:43:58;;;;;;;0.20;0.20;;;17.70;99.90;;;;;;5026286;28;20438;-59
2022/07/27 02:46:25;;;;;;;0.25;0.25;;;17.70;99.90;;;;;;5036790;28;20436;-59
2022/07/27 02:48:52;;;;;;;0.40;0.25;;;17.70;99.90;;;;;;5035268;28;20427;-59
2022/07/27 02:51:19;;;;;;;0.30;0.30;;;17.70;99.90;;;;;;5029650;28;20505;-58
2022/07/27 02:53:46;;;;;;;0.30;0.30;;;17.70;99.90;;;;;;5023570;28;20485;-59
2022/07/27 02:56:12;;;;;;;0.50;0.30;;;17.60;99.90;;;;;;5019266;28;20438;-59
2022/07/27 02:58:39;;;;;;;0.20;0.20;;;17.60;99.90;;;;;;5028198;28;20508;-58
2022/07/27 03:01:08;;;;;;;0.30;0.30;;;17.60;99.90;;;;;;5032286;28;20471;-59
2022/07/27 03:03:36;;;;;;;0.20;0.20;;;17.50;99.90;;;;;;5021981;28;20429;-59
2022/07/27 03:06:05;;;;;;;0.30;0.30;;;17.50;99.90;;;;;;5033888;28;20429;-59
2022/07/27 03:08:32;;;;;;;0.20;0.20;;;17.50;99.90;;;;;;5035438;28;20528;-59
2022/07/27 03:10:59;;;;;;;0.30;0.30;;;17.50;99.90;;;;;;5034221;28;20427;-59
2022/07/27 03:13:32;;;;;;;0.30;0.30;;;17.50;99.90;;;;;;5035432;28;20431;-59
2022/07/27 03:16:01;;;;;;;0.40;0.40;;;17.50;99.90;;;;;;5020869;28;20569;-58
2022/07/27 03:18:28;;;;;;;0.30;0.30;;;17.50;99.90;;;;;;5042422;28;20484;-58
2022/07/27 03:20:54;;;;;;;0.30;0.30;;;17.50;99.90;;;;;;5034881;28;20429;-59
2022/07/27 03:23:21;;;;;;;0.25;0.25;;;17.40;99.90;;;;;;5018540;28;20810;-59
2022/07/27 03:25:48;;;;;;;0.33;0.33;;;17.30;99.90;;;;;;5028334;28;20453;-59
2022/07/27 03:28:14;;;;;;;0.50;0.40;;;17.30;99.90;;;;;;5033444;28;20438;-59
2022/07/27 03:30:41;;;;;;;0.30;0.30;;;17.30;99.90;;;;;;5032982;28;20438;-59
2022/07/27 03:33:08;;;;;;;0.30;0.30;;;17.30;99.90;;;;;;5020602;28;20443;-59
2022/07/27 03:35:35;;;;;;;0.40;0.30;;;17.30;99.90;;;;;;5022598;28;20431;-59
2022/07/27 03:38:02;;;;;;;0.20;0.20;;;17.30;99.90;;;;;;5019488;28;20445;-59
2022/07/27 03:40:31;;;;;;;0.20;0.20;;;17.20;99.90;;;;;;5029815;28;20941;-58
2022/07/27 03:42:58;;;;;;;0.20;0.20;;;17.30;99.90;;;;;;5031244;28;20428;-58
2022/07/27 03:45:26;;;;;;;0.20;0.20;;;17.30;99.90;;;;;;5032286;28;21001;-58
2022/07/27 03:47:53;;;;;;;0.30;0.30;;;17.30;99.90;;;;;;5030475;28;20921;-59
2022/07/27 03:50:20;;;;;;;0.20;0.20;;;17.30;99.90;;;;;;5036899;28;20530;-58
2022/07/27 03:52:47;;;;;;;0.38;0.30;;;17.30;99.90;;;;;;5025546;28;20447;-58
2022/07/27 03:55:14;;;;;;;0.45;0.45;;;17.30;99.90;;;;;;5023269;28;20430;-58
2022/07/27 03:57:41;;;;;;;0.37;0.37;;;17.40;99.90;;;;;;5042892;28;20495;-59
2022/07/27 04:00:11;;;;;;;0.38;0.38;;;17.30;99.90;;;;;;5026402;28;21137;-59
2022/07/27 04:02:38;;;;;;;0.20;0.20;;;17.40;99.90;;;;;;5023040;28;21043;-59
2022/07/27 04:05:06;;;;;;;0.20;0.20;;;17.30;99.90;;;;;;5026632;28;20423;-59
2022/07/27 04:07:36;;;;;;;1.15;0.20;;;17.30;99.90;;;;;;5024198;28;20433;-59
2022/07/27 04:10:03;;;;;;;0.20;0.20;;;17.30;99.90;;;;;;5020163;28;20434;-59
2022/07/27 04:12:30;;;;;;;0.85;0.40;;;17.30;99.90;;;;;;5024248;28;21244;-59
2022/07/27 04:14:57;;;;;;;0.40;0.40;;;17.30;99.90;;;;;;5026954;28;20501;-58
2022/07/27 04:17:27;;;;;;;0.30;0.30;;;17.30;99.90;;;;;;5027746;28;20491;-58
2022/07/27 04:20:14;;;;;;;0.30;0.30;;;17.30;99.90;;;;;;5036364;28;20776;-59
2022/07/27 04:22:43;;;;;;;0.20;0.20;;;17.30;99.90;;;;;;5025984;28;20430;-59
2022/07/27 04:25:10;;;;;;;2.10;0.20;;;17.30;99.90;;;;;;5012470;28;20428;-58
2022/07/27 04:27:37;;;;;;;0.30;0.30;;;17.30;99.90;;;;;;5043435;28;20439;-59
2022/07/27 04:30:04;;;;;;;0.40;0.40;;;17.30;99.90;;;;;;5024808;28;20972;-58
2022/07/27 04:32:35;;;;;;;0.47;0.47;;;17.30;99.90;;;;;;5019952;28;21130;-59
2022/07/27 04:35:02;;;;;;;0.30;0.30;;;17.40;99.90;;;;;;5033035;28;20515;-59
2022/07/27 04:37:30;;;;;;;0.30;0.30;;;17.30;99.90;;;;;;5014168;28;20433;-58
2022/07/27 04:39:57;;;;;;;0.20;0.20;;;17.30;99.90;;;;;;5025752;28;20480;-59
2022/07/27 04:42:28;;;;;;;0.20;0.20;;;17.30;99.90;;;;;;5020994;28;20455;-59
2022/07/27 04:44:55;;;;;;;0.30;0.30;;;17.40;99.90;;;;;;5040417;28;20433;-59
2022/07/27 04:47:22;;;;;;;0.40;0.40;;;17.40;99.90;;;;;;5024226;28;20434;-58
2022/07/27 04:49:49;;;;;;;0.30;0.30;;;17.40;99.90;;;;;;5039541;28;20465;-59
2022/07/27 04:52:16;;;;;;;0.30;0.30;;;17.40;99.90;;;;;;5027940;28;20471;-60
2022/07/27 04:54:44;;;;;;;0.40;0.40;;;17.40;99.90;;;;;;5031218;28;20452;-60
2022/07/27 04:57:14;;;;;;;0.20;0.20;;;17.40;99.90;;;;;;5025500;28;20435;-60
2022/07/27 04:59:41;;;;;;;0.20;0.20;;;17.50;99.90;;;;;;5010048;28;20435;-59
2022/07/27 05:02:07;;;;;;;0.50;0.50;;;17.50;99.90;;;;;;5013669;28;20428;-60
2022/07/27 05:04:34;;;;;;;0.70;0.43;;;17.50;99.90;;;;;;5010971;28;22958;-60
2022/07/27 05:07:01;;;;;;;0.20;0.20;;;17.60;99.90;;;;;;5033738;28;20937;-59
2022/07/27 05:09:28;;;;;;;0.30;0.30;;;17.60;99.90;;;;;;5022432;28;20473;-59
2022/07/27 05:11:55;;;;;;;0.50;0.30;;;17.70;99.90;;;;;;5030909;28;20438;-60
2022/07/27 05:14:22;;;;;;;0.20;0.20;;;17.60;99.90;;;;;;5032804;28;21045;-61
2022/07/27 05:16:49;;;;;;;0.50;0.20;;;17.70;99.90;;;;;;5016155;28;20533;-60
2022/07/27 05:19:16;;;;;;;1.40;0.30;;;17.80;99.90;;;;;;5038527;28;20452;-61
2022/07/27 05:21:43;;;;;;;0.90;0.30;;;17.90;99.90;;;;;;5021873;28;20438;-60
2022/07/27 05:24:10;;;;;;;0.30;0.30;;;17.90;99.90;;;;;;5011049;28;20430;-61
2022/07/27 05:26:37;;;;;;;0.40;0.40;;;18.00;99.90;;;;;;5022558;28;20913;-61
2022/07/27 05:29:06;;;;;;;0.30;0.30;;;18.10;99.90;;;;;;5023610;28;20431;-61
2022/07/27 05:31:33;;;;;;;0.38;0.38;;;18.10;99.90;;;;;;5019295;28;21331;-60
2022/07/27 05:34:00;;;;;;;0.30;0.30;;;18.20;99.90;;;;;;5027293;28;20498;-60
2022/07/27 05:36:30;;;;;;;0.40;0.40;;;18.30;99.90;;;;;;5039139;28;20439;-61
2022/07/27 05:38:57;;;;;;;0.47;0.47;;;18.30;99.90;;;;;;5030511;28;20439;-61
2022/07/27 05:41:25;;;;;;;0.40;0.40;;;18.50;99.90;;;;;;5024063;28;20520;-61
2022/07/27 05:43:56;;;;;;;0.20;0.20;;;18.60;99.90;;;;;;5041213;28;20512;-62
2022/07/27 05:46:23;;;;;;;0.40;0.28;;;18.60;99.90;;;;;;5031899;28;20436;-62
2022/07/27 05:48:52;;;;;;;0.75;0.38;;;18.60;99.90;;;;;;5025654;28;20903;-61
2022/07/27 05:51:19;;;;;;;0.40;0.40;;;18.70;99.90;;;;;;5033904;28;20431;-60
2022/07/27 05:53:46;;;;;;;0.20;0.20;;;18.90;99.90;;;;;;5032400;28;20466;-60
2022/07/27 05:56:16;;;;;;;0.40;0.40;;;19.00;99.90;;;;;;5030015;28;20483;-60
2022/07/27 05:58:43;;;;;;;0.30;0.30;;;19.10;99.90;;;;;;5038447;28;20926;-60
2022/07/27 06:01:09;;;;;;;0.20;0.20;;;19.40;99.90;;;;;;5025913;28;20944;-60
2022/07/27 06:03:37;;;;;;;1.80;0.40;;;19.50;99.90;;;;;;5028182;28;20425;-60
2022/07/27 06:08:49;;;;;;;0.30;0.30;;;20.00;99.90;;;;;;5034612;28;20966;-59
2022/07/27 06:11:16;;;;;;;0.25;0.20;;;20.10;99.90;;;;;;5026350;28;20489;-61
2022/07/27 06:13:43;;;;;;;0.30;0.30;;;20.10;99.90;;;;;;5034047;28;20433;-60
2022/07/27 06:16:10;;;;;;;0.27;0.27;;;19.90;99.90;;;;;;5025772;28;20439;-59
2022/07/27 06:18:37;;;;;;;0.43;0.43;;;19.70;99.90;;;;;;5035041;28;20435;-59
2022/07/27 06:21:04;;;;;;;0.30;0.30;;;19.70;99.90;;;;;;5034988;28;20437;-60
2022/07/27 06:23:31;;;;;;;0.22;0.22;;;19.70;99.90;;;;;;5048242;28;20429;-60
2022/07/27 06:25:58;;;;;;;0.30;0.30;;;19.80;99.90;;;;;;5026231;28;20510;-58
2022/07/27 06:28:25;;;;;;;0.30;0.30;;;19.80;99.90;;;;;;5041900;28;20441;-59
2022/07/27 06:30:52;;;;;;;0.40;0.40;;;19.80;99.90;;;;;;5037682;28;20485;-59
2022/07/27 06:33:26;;;;;;;1.00;0.25;;;20.00;99.90;;;;;;5026704;28;20432;-59
2022/07/27 06:35:55;;;;;;;0.20;0.20;;;20.20;99.90;;;;;;5036372;28;20524;-59
2022/07/27 06:38:24;;;;;;;0.43;0.43;;;20.60;99.90;;;;;;5030501;28;20435;-59
2022/07/27 06:40:52;;;;;;;0.40;0.40;;;21.00;99.90;;;;;;5027405;28;20995;-59
2022/07/27 06:43:20;;;;;;;0.60;0.25;;;21.40;99.90;;;;;;5028564;28;20976;-60
2022/07/27 06:45:47;;;;;;;0.20;0.20;;;22.30;99.90;;;;;;5037554;28;20489;-60
2022/07/27 06:48:15;;;;;;;0.30;0.30;;;22.50;99.90;;;;;;5021312;28;20425;-60
2022/07/27 06:50:43;;;;;;;2.30;0.40;;;22.90;99.90;;;;;;5030359;28;20470;-60
2022/07/27 06:53:16;;;;;;;0.40;0.37;;;23.30;99.90;;;;;;5006961;28;20430;-60
2022/07/27 06:55:47;;;;;;;0.60;0.40;;;23.90;99.90;;;;;;5016703;28;21099;-60
2022/07/27 06:58:14;;;;;;;0.35;0.28;;;24.30;99.90;;;;;;5022528;28;23286;-60
2022/07/27 07:00:43;;;;;;;0.30;0.30;;;24.70;99.90;;;;;;5022679;28;20439;-60
2022/07/27 07:03:12;;;;;;;1.20;0.30;;;24.70;99.90;;;;;;5027984;28;20442;-58
2022/07/27 07:05:44;;;;;;;0.40;0.40;;;24.70;99.90;;;;;;5020754;28;21000;-60
2022/07/27 07:08:12;;;;;;;0.20;0.20;;;24.50;99.90;;;;;;5011408;28;20430;-59
2022/07/27 07:10:40;;;;;;;1.00;0.30;;;24.50;99.90;;;;;;5021763;28;20458;-57
2022/07/27 07:13:07;;;;;;;0.30;0.30;;;24.60;99.90;;;;;;5018130;28;20971;-58
2022/07/27 07:15:36;;;;;;;0.45;0.45;;;24.80;99.90;;;;;;5019793;28;20574;-56
2022/07/27 07:18:03;;;;;;;0.30;0.30;;;24.30;99.90;;;;;;5013527;28;20436;-55
2022/07/27 07:20:30;;;;;;;0.40;0.40;;;24.10;99.90;;;;;;5034270;28;21286;-55
2022/07/27 07:22:58;;;;;;;0.70;0.50;;;24.60;99.90;;;;;;5019831;28;20443;-56
2022/07/27 07:25:28;;;;;;;0.70;0.40;;;24.60;99.60;;;;;;5024590;28;20422;-55
2022/07/27 07:27:55;;;;;;;0.30;0.30;;;24.60;99.90;;;;;;5020915;28;20475;-55
2022/07/27 07:30:22;;;;;;;0.30;0.30;;;24.60;99.50;;;;;;5018663;28;21149;-55
2022/07/27 07:32:49;;;;;;;0.30;0.30;;;24.30;99.50;;;;;;5020131;28;20439;-55
2022/07/27 07:35:16;;;;;;;0.97;0.40;;;24.00;99.70;;;;;;5020970;28;20435;-57
2022/07/27 07:37:43;;;;;;;0.40;0.40;;;23.80;99.70;;;;;;5020270;28;20447;-57
2022/07/27 07:40:10;;;;;;;0.30;0.30;;;23.70;99.90;;;;;;5034661;28;20441;-56
2022/07/27 07:43:01;;;;;;;0.25;0.25;;;23.90;99.90;;;;;;5010204;28;21006;-56
2022/07/27 07:45:32;;;;;;;0.30;0.30;;;24.10;99.90;;;;;;5028623;28;20885;-56
2022/07/27 07:47:59;;;;;;;0.80;0.40;;;24.30;99.60;;;;;;5018582;28;20534;-56
2022/07/27 07:50:26;;;;;;;0.30;0.30;;;24.40;99.90;;;;;;5030943;28;20959;-56
2022/07/27 07:52:56;;;;;;;0.40;0.30;;;25.20;99.60;;;;;;5018582;28;20431;-56
2022/07/27 07:55:25;;;;;;;0.30;0.30;;;25.70;98.10;;;;;;5023104;28;20521;-56
2022/07/27 07:57:53;;;;;;;1.70;0.20;;;25.90;98.30;;;;;;5021493;28;20462;-56
2022/07/27 08:00:20;;;;;;;0.30;0.30;;;25.90;97.60;;;;;;5024528;28;20443;-56
2022/07/27 08:02:56;;;;;;;0.20;0.20;;;25.70;98.00;;;;;;5025851;28;20429;-56
2022/07/27 08:05:24;;;;;;;0.25;0.25;;;25.70;97.10;;;;;;5039634;28;20481;-56
2022/07/27 08:07:52;;;;;;;0.28;0.28;;;25.40;97.80;;;;;;5026200;28;20469;-56
2022/07/27 08:10:20;;;;;;;0.60;0.20;;;25.30;97.60;;;;;;5027688;28;20431;-56
2022/07/27 08:12:51;;;;;;;0.30;0.30;;;26.00;97.30;;;;;;5029465;28;21233;-56
2022/07/27 08:15:20;;;;;;;0.40;0.28;;;26.50;96.70;;;;;;5014799;28;21053;-56
2022/07/27 08:17:56;;;;;;;0.25;0.25;;;26.20;95.70;;;;;;5017190;28;20466;-56
2022/07/27 08:20:25;;;;;;;0.50;0.40;;;24.60;96.60;;;;;;5019639;28;20510;-58
2022/07/27 08:22:52;;;;;;;0.30;0.30;;;23.70;97.50;;;;;;5023993;28;20510;-56
2022/07/27 08:25:22;;;;;;;0.50;0.30;;;22.90;97.70;;;;;;5030215;28;20553;-57
2022/07/27 08:27:49;;;;;;;1.20;0.38;;;22.60;98.20;;;;;;5032108;28;20478;-56
2022/07/27 08:30:16;;;;;;;0.50;0.40;;;22.60;98.60;;;;;;5026123;28;20446;-56
2022/07/27 08:32:48;;;;;;;0.30;0.30;;;22.40;98.50;;;;;;5018919;28;20497;-55
2022/07/27 08:35:17;;;;;;;0.30;0.30;;;22.30;98.70;;;;;;5024642;28;20526;-56
2022/07/27 08:37:44;;;;;;;0.40;0.40;;;22.10;98.80;;;;;;5022738;28;20512;-56
2022/07/27 08:40:11;;;;;;;0.30;0.30;;;22.40;98.70;;;;;;5018078;28;20428;-56
2022/07/27 08:43:00;;;;;;;0.30;0.30;;;23.20;98.30;;;;;;5012625;28;20945;-57
2022/07/27 08:45:29;;;;;;;0.32;0.32;;;24.10;98.10;;;;;;5027433;28;20447;-57
2022/07/27 08:47:56;;;;;;;0.20;0.20;;;24.90;97.60;;;;;;5023473;28;20449;-57
2022/07/27 08:50:24;;;;;;;0.30;0.30;;;25.60;96.60;;;;;;5025710;28;20431;-57
2022/07/27 08:53:02;;;;;;;0.30;0.30;;;26.10;95.00;;;;;;5028580;28;20494;-57
2022/07/27 08:55:31;;;;;;;0.20;0.20;;;26.80;94.20;;;;;;5021109;28;20463;-57
2022/07/27 08:57:59;;;;;;;0.32;0.32;;;27.00;93.60;;;;;;5016566;28;20427;-57
2022/07/27 09:00:30;;;;;;;0.30;0.30;;;26.90;93.10;;;;;;5031892;28;20457;-57
2022/07/27 09:02:57;;;;;;;0.30;0.30;;;27.10;93.00;;;;;;5019436;28;20511;-57
2022/07/27 09:05:24;;;;;;;0.30;0.30;;;27.50;92.60;;;;;;5030667;28;20826;-57
2022/07/27 09:08:14;;;;;;;0.60;0.40;;;28.00;91.90;;;;;;5017286;28;20432;-57
2022/07/27 09:10:42;;;;;;;0.30;0.30;;;28.40;92.20;;;;;;5015946;28;20436;-58
2022/07/27 09:13:25;;;;;;;0.20;0.20;;;28.50;91.60;;;;;;5017842;28;20505;-56
2022/07/27 09:16:05;;;;;;;0.20;0.20;;;28.70;91.60;;;;;;5017571;28;20828;-56
2022/07/27 09:18:56;;;;;;;0.30;0.30;;;28.70;91.30;;;;;;5021183;28;20462;-57
2022/07/27 09:21:27;;;;;;;0.20;0.20;;;28.60;91.30;;;;;;5020995;28;21011;-57
2022/07/27 09:24:14;;;;;;;0.32;0.32;;;27.90;91.50;;;;;;5019505;28;20509;-57
2022/07/27 09:27:02;;;;;;;0.28;0.28;;;28.50;91.70;;;;;;5013526;28;20630;-56
2022/07/27 09:29:33;;;;;;;0.35;0.35;;;27.90;91.00;;;;;;5027420;28;20432;-57
2022/07/27 09:32:15;;;;;;;0.38;0.38;;;27.20;91.80;;;;;;5025228;28;20431;-57
2022/07/27 09:34:45;;;;;;;0.25;0.25;;;27.20;92.20;;;;;;5031042;28;20905;-57
2022/07/27 09:37:23;;;;;;;0.22;0.22;;;27.50;91.70;;;;;;5029461;28;20445;-57
2022/07/27 09:40:08;;;;;;;1.20;0.50;;;26.70;91.90;;;;;;5027020;28;20433;-59
2022/07/27 09:42:35;;;;;;;0.20;0.20;;;26.20;92.40;;;;;;5020617;28;20426;-58
2022/07/27 09:45:35;;;;;;;0.30;0.30;;;26.30;92.00;;;;;;5016843;28;20429;-58
2022/07/27 09:48:20;;;;;;;0.38;0.38;;;26.30;92.80;;;;;;5021592;28;20442;-59
2022/07/27 09:51:01;;;;;;;0.30;0.30;;;26.40;92.20;;;;;;5016479;28;20524;-58
2022/07/27 09:53:48;;;;;;;0.20;0.20;;;26.20;92.20;;;;;;5026664;28;20417;-59
2022/07/27 09:56:16;;;;;;;0.70;0.30;;;25.70;92.50;;;;;;5045502;28;20440;-57
2022/07/27 09:58:50;;;;;;;0.50;0.50;;;25.80;92.60;;;;;;5029980;28;20437;-58
2022/07/27 10:01:25;;;;;;;0.30;0.30;;;26.00;92.50;;;;;;5020262;28;20455;-58
2022/07/27 10:03:55;;;;;;;0.38;0.38;;;25.90;92.30;;;;;;5027661;28;20426;-58
2022/07/27 10:06:23;;;;;;;0.30;0.30;;;25.70;92.30;;;;;;5023357;28;20438;-58
2022/07/27 10:08:53;;;;;;;0.55;0.55;;;25.40;92.30;;;;;;5031808;28;20428;-58
2022/07/27 10:11:22;;;;;;;1.40;0.40;;;25.20;92.60;;;;;;5010289;28;20445;-58
2022/07/27 10:13:51;;;;;;;0.45;0.40;;;25.40;92.80;;;;;;5020737;28;20910;-58
2022/07/27 10:16:24;;;;;;;0.30;0.30;;;25.70;92.70;;;;;;5021518;28;20426;-58
2022/07/27 10:19:00;;;;;;;0.38;0.38;;;26.30;92.10;;;;;;5029770;28;20872;-58
2022/07/27 10:21:35;;;;;;;0.47;0.30;;;26.50;91.80;;;;;;5025938;28;20442;-58
2022/07/27 10:24:10;;;;;;;0.20;0.20;;;25.70;92.10;;;;;;5026022;28;20585;-58
2022/07/27 10:26:42;;;;;;;0.20;0.20;;;25.50;91.90;;;;;;5030282;28;20524;-58
2022/07/27 10:29:20;;;;;;;0.40;0.35;;;25.30;92.30;;;;;;5028309;28;20936;-58
2022/07/27 10:31:52;;;;;;;0.30;0.30;;;25.50;92.30;;;;;;5025666;28;20431;-58
2022/07/27 10:34:35;;;;;;;0.30;0.30;;;25.50;91.80;;;;;;5029090;28;20501;-58
2022/07/27 10:37:23;;;;;;;0.40;0.40;;;26.10;91.90;;;;;;5035552;28;20442;-58
2022/07/27 10:40:32;;;;;;;0.25;0.25;;;26.70;91.00;;;;;;5032169;28;20516;-57
2022/07/27 10:42:39;;;;;;;0.40;0.40;;;26.70;90.70;;;;;;5028765;28;20435;-58
2022/07/27 10:45:12;;;;;;;0.40;0.40;;;26.50;90.70;;;;;;5030883;28;20922;-59
2022/07/27 10:47:44;;;;;;;0.30;0.30;;;26.80;91.20;;;;;;5038087;28;20430;-59
2022/07/27 10:50:16;;;;;;;0.40;0.30;;;26.50;91.40;;;;;;5033450;28;20438;-59
2022/07/27 10:52:51;;;;;;;0.40;0.40;;;27.20;90.80;;;;;;5027274;28;20495;-59
2022/07/27 10:55:34;;;;;;;0.40;0.40;;;28.30;90.20;;;;;;5030400;28;20462;-59
2022/07/27 10:58:09;;;;;;;0.30;0.30;;;27.60;89.90;;;;;;5032709;28;20435;-59
2022/07/27 11:00:48;;;;;;;0.30;0.30;;;27.30;90.00;;;;;;5030795;28;20431;-59
2022/07/27 11:03:29;;;;;;;0.30;0.30;;;26.60;90.50;;;;;;5021090;28;20442;-59
2022/07/27 11:06:06;;;;;;;0.30;0.30;;;26.30;90.60;;;;;;5029342;28;20464;-59
2022/07/27 11:08:54;;;;;;;0.30;0.30;;;26.00;90.90;;;;;;5033151;28;20445;-59
2022/07/27 11:11:52;;;;;;;0.30;0.30;;;26.20;90.70;;;;;;5033151;28;20417;-59
2022/07/27 11:14:19;;;;;;;0.30;0.30;;;27.10;90.00;;;;;;5036648;28;20521;-59
2022/07/27 11:16:58;;;;;;;0.20;0.20;;;27.50;89.90;;;;;;5034565;28;20574;-58
2022/07/27 11:19:51;;;;;;;0.30;0.30;;;26.60;88.20;;;;;;5027058;28;20423;-59
2022/07/27 11:22:39;;;;;;;0.30;0.30;;;27.00;90.10;;;;;;5020874;28;20460;-59
2022/07/27 11:25:26;;;;;;;0.40;0.40;;;27.50;88.90;;;;;;5036103;28;20456;-58
2022/07/27 11:27:53;;;;;;;0.40;0.22;;;27.30;89.30;;;;;;5027300;28;20431;-59
2022/07/27 11:30:27;;;;;;;0.20;0.20;;;27.10;89.00;;;;;;5021971;28;20483;-59
2022/07/27 11:32:55;;;;;;;0.30;0.30;;;27.10;89.60;;;;;;5035893;28;20938;-59
2022/07/27 11:35:22;;;;;;;0.30;0.30;;;27.00;89.10;;;;;;5028401;28;20974;-58
2022/07/27 11:38:03;;;;;;;0.20;0.20;;;27.00;89.80;;;;;;5027704;28;20450;-59
2022/07/27 11:40:50;;;;;;;1.08;0.47;;;27.20;89.40;;;;;;5028224;28;20448;-58
2022/07/27 11:43:35;;;;;;;0.20;0.20;;;27.10;89.40;;;;;;5027025;28;20485;-58
2022/07/27 11:46:29;;;;;;;0.60;0.30;;;26.90;89.60;;;;;;5027106;28;20430;-58
2022/07/27 11:49:00;;;;;;;0.28;0.28;;;26.70;89.10;;;;;;5021362;28;20441;-58
2022/07/27 11:51:41;;;;;;;1.20;0.45;;;26.00;89.20;;;;;;5022329;28;20435;-58
2022/07/27 11:54:24;;;;;;;0.30;0.30;;;26.60;90.50;;;;;;5028076;28;21586;-58
2022/07/27 11:56:57;;;;;;;0.25;0.25;;;26.70;89.70;;;;;;5024014;28;20449;-58
2022/07/27 11:59:38;;;;;;;0.30;0.30;;;26.90;88.90;;;;;;5022294;28;20488;-58
2022/07/27 12:02:08;;;;;;;0.30;0.30;;;27.00;87.80;;;;;;5022749;28;20435;-58
2022/07/27 12:04:37;;;;;;;0.40;0.30;;;27.00;87.70;;;;;;5024950;28;20998;-58
2022/07/27 12:07:09;;;;;;;0.40;0.40;;;26.70;87.90;;;;;;5026238;28;20431;-58
2022/07/27 12:09:44;;;;;;;0.20;0.20;;;26.90;88.80;;;;;;5020589;28;20924;-58
2022/07/27 12:12:26;;;;;;;0.30;0.30;;;26.90;88.90;;;;;;5028698;28;20478;-58
2022/07/27 12:15:00;;;;;;;0.20;0.20;;;26.90;88.50;;;;;;5022992;28;20443;-58
2022/07/27 12:17:56;;;;;;;0.20;0.20;;;27.10;88.80;;;;;;5023453;28;20778;-58
2022/07/27 12:20:31;;;;;;;0.30;0.30;;;26.90;87.70;;;;;;5024158;28;20965;-58
2022/07/27 12:23:07;;;;;;;0.28;0.28;;;26.80;88.10;;;;;;5027534;28;20976;-58
2022/07/27 12:25:35;;;;;;;0.30;0.30;;;26.80;88.90;;;;;;5024798;28;20516;-59
2022/07/27 12:28:05;;;;;;;0.60;0.40;;;27.10;89.40;;;;;;5024537;28;20901;-58
2022/07/27 12:30:45;;;;;;;1.30;0.30;;;27.50;87.90;;;;;;5025029;28;20492;-58
2022/07/27 12:33:35;;;;;;;0.35;0.35;;;27.60;87.20;;;;;;5024454;28;20449;-58
2022/07/27 12:36:07;;;;;;;0.30;0.30;;;27.90;88.10;;;;;;5025226;28;20441;-59
2022/07/27 12:38:45;;;;;;;0.20;0.20;;;28.20;87.00;;;;;;5026700;28;20466;-58
2022/07/27 12:41:35;;;;;;;0.30;0.30;;;28.10;85.80;;;;;;5024983;28;20462;-58
2022/07/27 12:44:04;;;;;;;0.30;0.30;;;28.10;87.00;;;;;;5024272;28;20962;-58
2022/07/27 12:46:31;;;;;;;0.30;0.30;;;28.20;87.00;;;;;;5029220;28;20451;-58
2022/07/27 12:48:58;;;;;;;0.30;0.30;;;28.10;86.50;;;;;;5030687;28;20832;-58
2022/07/27 12:51:25;;;;;;;0.32;0.32;;;27.90;85.90;;;;;;5024706;28;20438;-58
2022/07/27 12:53:52;;;;;;;0.30;0.30;;;28.00;87.10;;;;;;5024462;28;20477;-58
2022/07/27 12:56:21;;;;;;;0.30;0.30;;;28.30;85.90;;;;;;5027249;28;20516;-58
2022/07/27 12:59:03;;;;;;;0.35;0.35;;;28.70;85.80;;;;;;5020997;28;20430;-58
2022/07/27 13:01:30;;;;;;;0.30;0.30;;;28.40;84.50;;;;;;5025737;28;20432;-58
2022/07/27 13:03:57;;;;;;;0.30;0.30;;;28.00;85.50;;;;;;5025299;28;20550;-58
2022/07/27 13:06:23;;;;;;;0.30;0.30;;;27.90;85.50;;;;;;5021513;28;20538;-58
2022/07/27 13:08:50;;;;;;;0.20;0.20;;;27.60;85.40;;;;;;5016171;28;20433;-58
2022/07/27 13:11:20;;;;;;;0.30;0.30;;;27.20;86.70;;;;;;5021106;28;20971;-58